Chamar Uno — EA2638 — position and weather

sailwx.info

Track history (hours):
 
Tides and Currents Weather Stations Pressure Air Temp Water Temp Dewpoint Dewpoint Depression Visibility Wind Speed Wind Dir Waves Ship Positions

Chamar Uno

Last reported at 2018-Feb-19 18:46 UTC. Time now 2018-Feb-20 04:22 UTC.
Position N 28°09' W 015°25'.

Length 16 m; draft 3.7 m.

Type: Other ship. MMSI: 224053260.

Date/timePositionNaut miles runAvg speedWind from/ knotsBaromVisibWave heightAir tempDewpointWater temp
2018-Feb-19 18:46N 28°09' W 015°25'0 1.2
2018-Feb-19 18:30N 28°08' W 015°25'4 8.5
2018-Feb-19 18:00N 28°04' W 015°24'0 0.3
2018-Feb-19 17:30N 28°04' W 015°24'1 2.5
2018-Feb-19 17:00N 28°05' W 015°24'1 2.5
2018-Feb-19 16:30N 28°04' W 015°24'0 1.0
2018-Feb-19 16:00N 28°05' W 015°24'4 8.5
2018-Feb-19 15:31N 28°09' W 015°25'0 0.0
2018-Feb-19 12:11N 28°09' W 015°25'1 6.7
2018-Feb-19 12:00N 28°07' W 015°25'0 1.0
2018-Feb-19 11:30N 28°08' W 015°25'1 0.0
2018-Feb-18 14:00N 28°07' W 015°25'0 0.2
2018-Feb-18 13:30N 28°07' W 015°25'  
2018-Feb-15 17:43N 28°08' W 015°25'2 8.6
2018-Feb-15 17:30N 28°07' W 015°25'2 4.6
2018-Feb-15 17:00N 28°04' W 015°24'4 8.8
2018-Feb-15 16:31N 28°09' W 015°25'0 0.0
2018-Feb-15 16:01N 28°09' W 015°25'0 0.0
2018-Feb-15 15:30N 28°09' W 015°25'1 1.5
2018-Feb-15 14:59N 28°08' W 015°25'1 1.6
2018-Feb-15 14:30N 28°09' W 015°25'1 1.8
2018-Feb-15 14:00N 28°08' W 015°25'4 8.2
2018-Feb-15 13:30N 28°04' W 015°24'1 2.2
2018-Feb-15 13:00N 28°05' W 015°24'0 0.0
2018-Feb-15 12:30N 28°05' W 015°24'1 2.5
2018-Feb-15 12:00N 28°04' W 015°24'4 8.0
2018-Feb-15 11:30N 28°08' W 015°25'1 1.3
2018-Feb-15 11:00N 28°09' W 015°25'0 0.0
2018-Feb-15 10:30N 28°09' W 015°25'0 0.0
2018-Feb-15 10:00N 28°09' W 015°25'1 2.2
2018-Feb-15 09:30N 28°08' W 015°24'0 0.0
2018-Feb-15 09:00N 28°08' W 015°24'0 0.0
2018-Feb-15 08:30N 28°08' W 015°24'0 0.2
2018-Feb-15 08:00N 28°08' W 015°24'1 1.5
2018-Feb-15 07:31N 28°08' W 015°25'1 0.1
2018-Feb-14 18:40N 28°09' W 015°25'1 7.9
2018-Feb-14 18:30N 28°07' W 015°25'0 0.0
2018-Feb-14 18:00N 28°07' W 015°25'0 0.0
2018-Feb-14 17:30N 28°07' W 015°25'0 0.0
2018-Feb-14 17:00N 28°07' W 015°25'0 0.1
2018-Feb-14 16:30N 28°07' W 015°25'0 0.0
2018-Feb-14 15:59N 28°07' W 015°25'0 0.1
2018-Feb-14 15:30N 28°07' W 015°25'0 0.1
2018-Feb-14 15:00N 28°07' W 015°25'0 0.4
2018-Feb-14 14:30N 28°08' W 015°25'0 0.4
2018-Feb-14 14:00N 28°08' W 015°25'1 2.1
2018-Feb-14 13:30N 28°09' W 015°25'0 0.0
2018-Feb-14 13:00N 28°09' W 015°25'0 0.0
2018-Feb-14 12:30N 28°09' W 015°25'0 0.0
2018-Feb-14 12:00N 28°09' W 015°25'0 0.0
2018-Feb-14 11:31N 28°09' W 015°25'0 0.0
2018-Feb-14 11:00N 28°09' W 015°25'1 1.9
2018-Feb-14 10:30N 28°08' W 015°25'2 3.6
2018-Feb-14 10:00N 28°06' W 015°24'3 5.5
2018-Feb-14 09:30N 28°09' W 015°25'0 0.0
2018-Feb-13 15:46N 28°09' W 015°25'0 0.0
2018-Feb-13 15:31N 28°09' W 015°25'2 4.1
2018-Feb-13 15:01N 28°07' W 015°24'0 0.0
2018-Feb-13 14:30N 28°07' W 015°24'0 0.1
2018-Feb-13 14:00N 28°07' W 015°24'0 0.0
2018-Feb-13 13:30N 28°07' W 015°24'0 0.0
2018-Feb-13 13:00N 28°07' W 015°24'0 0.1
2018-Feb-13 12:30N 28°07' W 015°24'1 2.6
2018-Feb-13 12:00N 28°05' W 015°24'3 5.2
2018-Feb-13 11:30N 28°08' W 015°25'1 0.5
2018-Feb-13 10:07N 28°09' W 015°25'0 2.3
2018-Feb-13 10:00N 28°08' W 015°25'3 6.2
2018-Feb-13 09:30N 28°05' W 015°24'3 0.2
2018-Feb-12 18:49N 28°09' W 015°25'1 2.9
2018-Feb-12 18:30N 28°09' W 015°25'3 6.6
2018-Feb-12 18:00N 28°06' W 015°23'4 0.8
2018-Feb-12 13:32N 28°09' W 015°26'0 2.6
2018-Feb-12 13:30N 28°09' W 015°25'1 2.6
2018-Feb-12 13:00N 28°08' W 015°24'0 0.0
2018-Feb-12 12:30N 28°08' W 015°24'0 0.1
2018-Feb-12 12:00N 28°08' W 015°24'0 0.1
2018-Feb-12 11:30N 28°08' W 015°24'0 0.0
2018-Feb-12 11:00N 28°08' W 015°24'1 2.4
2018-Feb-12 10:30N 28°09' W 015°25'0 0.0
2018-Feb-11 12:10N 28°09' W 015°25'1 6.9
2018-Feb-11 12:00N 28°07' W 015°25'1 1.8
2018-Feb-11 11:30N 28°07' W 015°24'0 0.1
2018-Feb-11 11:00N 28°07' W 015°24'0 0.1
2018-Feb-11 10:28N 28°07' W 015°24'0 0.0
2018-Feb-11 10:00N 28°07' W 015°24'2 0.1
2018-Feb-10 20:09N 28°08' W 015°25'1 5.2
2018-Feb-10 20:00N 28°07' W 015°25'1 2.5
2018-Feb-10 19:31N 28°09' W 015°25'0 0.0
2018-Feb-09 21:55N 28°09' W 015°25'  
Track history (hours):
 
Tides and Currents Weather Stations Pressure Air Temp Water Temp Dewpoint Dewpoint Depression Visibility Wind Speed Wind Dir Waves Ship Positions

Chamar Uno

Last reported at 2018-Feb-19 18:46 UTC. Time now 2018-Feb-20 04:22 UTC.
Position N 28°09' W 015°25'.

Length 16 m; draft 3.7 m.

Type: Other ship. MMSI: 224053260.

Date/timePositionNaut miles runAvg speedWind from/ knotsBaromVisibWave heightAir tempDewpointWater temp
2018-Feb-19 18:46N 28°09' W 015°25'0 1.2
2018-Feb-19 18:30N 28°08' W 015°25'4 8.5
2018-Feb-19 18:00N 28°04' W 015°24'0 0.3
2018-Feb-19 17:30N 28°04' W 015°24'1 2.5
2018-Feb-19 17:00N 28°05' W 015°24'1 2.5
2018-Feb-19 16:30N 28°04' W 015°24'0 1.0
2018-Feb-19 16:00N 28°05' W 015°24'4 8.5
2018-Feb-19 15:31N 28°09' W 015°25'0 0.0
2018-Feb-19 12:11N 28°09' W 015°25'1 6.7
2018-Feb-19 12:00N 28°07' W 015°25'0 1.0
2018-Feb-19 11:30N 28°08' W 015°25'1 0.0
2018-Feb-18 14:00N 28°07' W 015°25'0 0.2
2018-Feb-18 13:30N 28°07' W 015°25'  
2018-Feb-15 17:43N 28°08' W 015°25'2 8.6
2018-Feb-15 17:30N 28°07' W 015°25'2 4.6
2018-Feb-15 17:00N 28°04' W 015°24'4 8.8
2018-Feb-15 16:31N 28°09' W 015°25'0 0.0
2018-Feb-15 16:01N 28°09' W 015°25'0 0.0
2018-Feb-15 15:30N 28°09' W 015°25'1 1.5
2018-Feb-15 14:59N 28°08' W 015°25'1 1.6
2018-Feb-15 14:30N 28°09' W 015°25'1 1.8
2018-Feb-15 14:00N 28°08' W 015°25'4 8.2
2018-Feb-15 13:30N 28°04' W 015°24'1 2.2
2018-Feb-15 13:00N 28°05' W 015°24'0 0.0
2018-Feb-15 12:30N 28°05' W 015°24'1 2.5
2018-Feb-15 12:00N 28°04' W 015°24'4 8.0
2018-Feb-15 11:30N 28°08' W 015°25'1 1.3
2018-Feb-15 11:00N 28°09' W 015°25'0 0.0
2018-Feb-15 10:30N 28°09' W 015°25'0 0.0
2018-Feb-15 10:00N 28°09' W 015°25'1 2.2
2018-Feb-15 09:30N 28°08' W 015°24'0 0.0
2018-Feb-15 09:00N 28°08' W 015°24'0 0.0
2018-Feb-15 08:30N 28°08' W 015°24'0 0.2
2018-Feb-15 08:00N 28°08' W 015°24'1 1.5
2018-Feb-15 07:31N 28°08' W 015°25'1 0.1
2018-Feb-14 18:40N 28°09' W 015°25'1 7.9
2018-Feb-14 18:30N 28°07' W 015°25'0 0.0
2018-Feb-14 18:00N 28°07' W 015°25'0 0.0
2018-Feb-14 17:30N 28°07' W 015°25'0 0.0
2018-Feb-14 17:00N 28°07' W 015°25'0 0.1
2018-Feb-14 16:30N 28°07' W 015°25'0 0.0
2018-Feb-14 15:59N 28°07' W 015°25'0 0.1
2018-Feb-14 15:30N 28°07' W 015°25'0 0.1
2018-Feb-14 15:00N 28°07' W 015°25'0 0.4
2018-Feb-14 14:30N 28°08' W 015°25'0 0.4
2018-Feb-14 14:00N 28°08' W 015°25'1 2.1
2018-Feb-14 13:30N 28°09' W 015°25'0 0.0
2018-Feb-14 13:00N 28°09' W 015°25'0 0.0
2018-Feb-14 12:30N 28°09' W 015°25'0 0.0
2018-Feb-14 12:00N 28°09' W 015°25'0 0.0
2018-Feb-14 11:31N 28°09' W 015°25'0 0.0
2018-Feb-14 11:00N 28°09' W 015°25'1 1.9
2018-Feb-14 10:30N 28°08' W 015°25'2 3.6
2018-Feb-14 10:00N 28°06' W 015°24'3 5.5
2018-Feb-14 09:30N 28°09' W 015°25'0 0.0
2018-Feb-13 15:46N 28°09' W 015°25'0 0.0
2018-Feb-13 15:31N 28°09' W 015°25'2 4.1
2018-Feb-13 15:01N 28°07' W 015°24'0 0.0
2018-Feb-13 14:30N 28°07' W 015°24'0 0.1
2018-Feb-13 14:00N 28°07' W 015°24'0 0.0
2018-Feb-13 13:30N 28°07' W 015°24'0 0.0
2018-Feb-13 13:00N 28°07' W 015°24'0 0.1
2018-Feb-13 12:30N 28°07' W 015°24'1 2.6
2018-Feb-13 12:00N 28°05' W 015°24'3 5.2
2018-Feb-13 11:30N 28°08' W 015°25'1 0.5
2018-Feb-13 10:07N 28°09' W 015°25'0 2.3
2018-Feb-13 10:00N 28°08' W 015°25'3 6.2
2018-Feb-13 09:30N 28°05' W 015°24'3 0.2
2018-Feb-12 18:49N 28°09' W 015°25'1 2.9
2018-Feb-12 18:30N 28°09' W 015°25'3 6.6
2018-Feb-12 18:00N 28°06' W 015°23'4 0.8
2018-Feb-12 13:32N 28°09' W 015°26'0 2.6
2018-Feb-12 13:30N 28°09' W 015°25'1 2.6
2018-Feb-12 13:00N 28°08' W 015°24'0 0.0
2018-Feb-12 12:30N 28°08' W 015°24'0 0.1
2018-Feb-12 12:00N 28°08' W 015°24'0 0.1
2018-Feb-12 11:30N 28°08' W 015°24'0 0.0
2018-Feb-12 11:00N 28°08' W 015°24'1 2.4
2018-Feb-12 10:30N 28°09' W 015°25'0 0.0
2018-Feb-11 12:10N 28°09' W 015°25'1 6.9
2018-Feb-11 12:00N 28°07' W 015°25'1 1.8
2018-Feb-11 11:30N 28°07' W 015°24'0 0.1
2018-Feb-11 11:00N 28°07' W 015°24'0 0.1
2018-Feb-11 10:28N 28°07' W 015°24'0 0.0
2018-Feb-11 10:00N 28°07' W 015°24'2 0.1
2018-Feb-10 20:09N 28°08' W 015°25'1 5.2
2018-Feb-10 20:00N 28°07' W 015°25'1 2.5
2018-Feb-10 19:31N 28°09' W 015°25'0 0.0
2018-Feb-09 21:55N 28°09' W 015°25'  

Dump ship's entire track history